createdAt,value
2023-03-31T00:02:05.641Z,3.38
2023-03-31T00:12:06.915Z,4.15
2023-03-31T00:22:08.308Z,3.22
2023-03-31T00:32:09.684Z,2.97
2023-03-31T00:42:11.023Z,3.40
2023-03-31T00:52:12.292Z,4.07
2023-03-31T01:02:13.560Z,3.17
2023-03-31T01:12:14.793Z,3.30
2023-03-31T01:22:16.062Z,4.03
2023-03-31T01:32:17.332Z,2.65
2023-03-31T01:42:18.679Z,4.00
2023-03-31T01:52:20.060Z,3.63
2023-03-31T02:02:21.481Z,3.72
2023-03-31T02:12:22.752Z,4.88
2023-03-31T02:22:24.042Z,4.47
2023-03-31T02:32:25.332Z,3.22
2023-03-31T02:42:26.653Z,3.88
2023-03-31T02:52:27.942Z,3.10
2023-03-31T03:02:29.369Z,3.70
2023-03-31T03:12:30.695Z,4.32
2023-03-31T03:22:31.973Z,3.78
2023-03-31T03:32:33.312Z,5.40
2023-03-31T03:42:34.674Z,3.92
2023-03-31T03:52:37.095Z,3.88
2023-03-31T04:02:38.589Z,3.90
2023-03-31T04:12:39.980Z,4.40
2023-03-31T04:22:41.401Z,4.75
2023-03-31T04:32:42.773Z,2.85
2023-03-31T04:42:44.105Z,3.70
2023-03-31T04:52:45.394Z,3.47
2023-03-31T05:02:46.694Z,3.97
2023-03-31T05:12:48.085Z,3.45
2023-03-31T05:22:51.673Z,3.20
2023-03-31T05:32:52.981Z,3.22
2023-03-31T05:42:54.326Z,2.25
2023-03-31T05:52:55.596Z,3.08
2023-03-31T06:02:56.960Z,3.15
2023-03-31T06:12:58.319Z,3.03
2023-03-31T06:22:59.631Z,3.10
2023-03-31T06:33:00.935Z,2.78
2023-03-31T06:43:02.268Z,3.15
2023-03-31T06:53:03.533Z,2.65
2023-03-31T07:03:04.861Z,2.05
2023-03-31T07:13:06.238Z,2.97
2023-03-31T07:23:07.611Z,4.13
2023-03-31T07:33:08.946Z,3.55
2023-03-31T07:43:10.309Z,3.70
2023-03-31T07:53:16.239Z,3.20
2023-03-31T08:13:49.307Z,2.30
2023-03-31T08:23:50.623Z,4.95
2023-03-31T08:33:52.991Z,4.53
2023-03-31T08:44:01.015Z,4.30
2023-03-31T08:54:11.126Z,5.40
2023-03-31T09:14:33.672Z,4.70
2023-03-31T09:24:43.166Z,5.53
2023-03-31T09:34:52.487Z,5.25
2023-03-31T09:55:07.846Z,4.63
2023-03-31T10:15:40.337Z,5.22
2023-03-31T10:25:42.983Z,6.70
2023-03-31T10:35:44.333Z,6.13
2023-03-31T10:45:49.085Z,5.68
2023-03-31T10:55:57.108Z,5.45
2023-03-31T11:06:05.558Z,6.32
2023-03-31T11:16:14.172Z,5.78
2023-03-31T11:26:22.166Z,4.50
2023-03-31T11:46:52.509Z,6.45
2023-03-31T11:56:53.902Z,5.00
2023-03-31T12:07:02.283Z,5.63
2023-03-31T12:17:03.789Z,5.72
2023-03-31T12:27:12.175Z,7.47
2023-03-31T12:37:20.127Z,4.28
2023-03-31T12:57:50.128Z,6.35
2023-03-31T13:07:51.390Z,5.85
2023-03-31T13:17:52.776Z,4.97
2023-03-31T13:27:58.488Z,4.65
2023-03-31T13:38:10.246Z,3.55
2023-03-31T13:48:17.535Z,6.15
2023-03-31T13:58:34.182Z,4.47
2023-03-31T14:18:59.582Z,3.38
2023-03-31T14:29:01.924Z,4.28
2023-03-31T14:39:03.246Z,2.58
2023-03-31T14:49:04.528Z,3.47
2023-03-31T14:59:10.021Z,3.20
2023-03-31T15:09:17.214Z,2.40
2023-03-31T15:19:30.859Z,1.80
2023-03-31T15:40:01.157Z,1.80
2023-03-31T15:50:02.487Z,2.60
2023-03-31T16:00:03.893Z,1.65
2023-03-31T16:10:06.443Z,2.45
2023-03-31T16:20:17.243Z,1.70
2023-03-31T16:40:47.568Z,1.58
2023-03-31T17:01:17.633Z,1.50
2023-03-31T17:11:19.017Z,2.92
2023-03-31T17:21:20.300Z,1.75
2023-03-31T17:31:26.801Z,1.67
2023-03-31T17:41:28.150Z,1.65
2023-03-31T17:51:41.010Z,1.60
2023-03-31T18:01:43.300Z,1.90
2023-03-31T18:11:44.630Z,1.70
2023-03-31T18:21:45.898Z,0.90
2023-03-31T18:31:47.253Z,2.00
2023-03-31T18:41:48.561Z,1.95
2023-03-31T18:51:49.846Z,1.63
2023-03-31T19:01:51.138Z,1.70
2023-03-31T19:11:52.477Z,2.80
2023-03-31T19:21:53.838Z,2.15
2023-03-31T19:31:56.358Z,2.00
2023-03-31T19:41:59.910Z,1.83
2023-03-31T19:52:01.276Z,2.35
2023-03-31T20:02:02.735Z,3.15
2023-03-31T20:22:32.974Z,2.05
2023-03-31T20:32:34.369Z,2.10
2023-03-31T20:42:35.759Z,2.10
2023-03-31T20:52:38.130Z,2.53
2023-03-31T21:02:39.528Z,2.60
2023-03-31T21:12:40.815Z,3.95
2023-03-31T21:22:42.139Z,3.92
2023-03-31T21:32:43.568Z,3.05
2023-03-31T21:42:44.961Z,4.18
2023-03-31T21:52:47.596Z,3.08
2023-03-31T22:02:58.228Z,3.28
2023-03-31T22:13:07.974Z,3.22
2023-03-31T22:23:09.294Z,2.60
2023-03-31T22:33:10.587Z,2.88
2023-03-31T22:43:11.814Z,3.80
2023-03-31T22:53:13.082Z,3.22
2023-03-31T23:03:15.979Z,2.80
2023-03-31T23:13:18.335Z,2.30
2023-03-31T23:23:25.457Z,3.47
2023-03-31T23:33:26.773Z,1.77
2023-03-31T23:43:29.376Z,3.05
2023-03-31T23:53:30.699Z,3.25
